createdAt,value
2018-07-11T00:01:51.537Z,14.09
2018-07-11T00:02:51.412Z,13.98
2018-07-11T00:04:44.160Z,14.05
2018-07-11T00:05:44.062Z,14.09
2018-07-11T00:07:36.950Z,14.13
2018-07-11T00:08:36.813Z,14.12
2018-07-11T00:10:29.586Z,14.19
2018-07-11T00:11:29.473Z,14.13
2018-07-11T00:13:22.209Z,14.01
2018-07-11T00:14:22.127Z,14.11
2018-07-11T00:16:14.986Z,14.04
2018-07-11T00:17:14.757Z,13.96
2018-07-11T00:19:07.497Z,13.86
2018-07-11T00:20:07.430Z,13.80
2018-07-11T00:22:00.164Z,13.82
2018-07-11T00:23:00.048Z,13.82
2018-07-11T00:24:52.894Z,13.79
2018-07-11T00:25:52.828Z,13.85
2018-07-11T00:27:45.674Z,13.85
2018-07-11T00:28:45.441Z,13.94
2018-07-11T00:30:38.196Z,13.75
2018-07-11T00:31:38.084Z,13.88
2018-07-11T00:33:31.967Z,13.79
2018-07-11T00:34:31.768Z,13.80
2018-07-11T00:36:24.632Z,13.97
2018-07-11T00:37:24.658Z,13.88
2018-07-11T00:39:17.252Z,13.93
2018-07-11T00:40:17.160Z,13.90
2018-07-11T00:42:10.445Z,13.97
2018-07-11T00:43:10.319Z,13.93
2018-07-11T00:45:03.072Z,13.85
2018-07-11T00:46:02.969Z,13.82
2018-07-11T00:47:55.845Z,13.79
2018-07-11T00:48:55.628Z,13.63
2018-07-11T00:50:48.465Z,13.63
2018-07-11T00:51:48.360Z,13.53
2018-07-11T00:53:41.128Z,13.63
2018-07-11T00:54:41.009Z,13.55
2018-07-11T00:56:33.753Z,13.54
2018-07-11T00:57:33.735Z,13.49
2018-07-11T00:59:26.417Z,13.42
2018-07-11T01:00:26.305Z,13.30
2018-07-11T01:02:19.053Z,13.26
2018-07-11T01:03:18.954Z,13.16
2018-07-11T01:05:12.032Z,13.19
2018-07-11T01:06:11.704Z,13.08
2018-07-11T01:08:04.437Z,13.06
2018-07-11T01:09:04.344Z,12.98
2018-07-11T01:10:57.123Z,12.99
2018-07-11T01:11:57.000Z,12.88
2018-07-11T01:13:49.735Z,12.80
2018-07-11T01:14:49.656Z,12.76
2018-07-11T01:16:43.473Z,12.71
2018-07-11T01:17:42.405Z,12.68
2018-07-11T01:19:35.168Z,12.55
2018-07-11T01:20:35.041Z,12.51
2018-07-11T01:22:27.878Z,12.65
2018-07-11T01:23:27.782Z,12.54
2018-07-11T01:25:20.560Z,12.53
2018-07-11T01:26:20.433Z,12.54
2018-07-11T01:28:13.279Z,12.54
2018-07-11T01:29:13.180Z,12.51
2018-07-11T01:31:06.539Z,12.38
2018-07-11T01:32:05.938Z,12.50
2018-07-11T01:33:58.675Z,12.38
2018-07-11T01:34:58.584Z,12.47
2018-07-11T01:36:51.346Z,12.46
2018-07-11T01:37:51.236Z,12.44
2018-07-11T01:39:44.088Z,12.44
2018-07-11T01:40:43.975Z,12.51
2018-07-11T01:42:36.744Z,12.36
2018-07-11T01:43:36.621Z,12.25
2018-07-11T01:45:29.379Z,12.29
2018-07-11T01:46:29.293Z,12.28
2018-07-11T01:48:22.143Z,12.18
2018-07-11T01:49:21.926Z,12.17
2018-07-11T01:51:14.668Z,12.07
2018-07-11T01:52:14.576Z,12.08
2018-07-11T01:54:07.319Z,12.05
2018-07-11T01:55:07.220Z,12.03
2018-07-11T01:56:59.999Z,12.05
2018-07-11T01:57:59.887Z,12.08
2018-07-11T01:59:53.232Z,12.11
2018-07-11T02:00:52.602Z,12.18
2018-07-11T02:02:45.377Z,12.15
2018-07-11T02:03:45.257Z,12.11
2018-07-11T02:05:38.608Z,12.15
2018-07-11T02:06:37.901Z,12.18
2018-07-11T02:08:30.661Z,12.11
2018-07-11T02:09:30.557Z,12.17
2018-07-11T02:11:23.403Z,12.18
2018-07-11T02:12:23.308Z,12.21
2018-07-11T02:14:16.169Z,12.30
2018-07-11T02:15:16.069Z,12.29
2018-07-11T02:17:08.907Z,12.36
2018-07-11T02:18:08.799Z,12.36
2018-07-11T02:20:02.572Z,12.35
2018-07-11T02:21:02.471Z,12.38
2018-07-11T02:22:55.255Z,12.25
2018-07-11T02:23:55.114Z,12.14
2018-07-11T02:25:47.873Z,12.17
2018-07-11T02:26:47.764Z,12.14
2018-07-11T02:28:40.536Z,12.08
2018-07-11T02:29:40.410Z,12.15
2018-07-11T02:31:33.274Z,12.14
2018-07-11T02:32:33.065Z,12.23
2018-07-11T02:34:25.841Z,12.21
2018-07-11T02:35:25.730Z,12.15
2018-07-11T02:37:18.455Z,12.15
2018-07-11T02:38:18.351Z,12.13
2018-07-11T02:40:11.105Z,12.13
2018-07-11T02:41:11.016Z,12.18
2018-07-11T02:43:03.853Z,12.15
2018-07-11T02:44:03.669Z,12.15
2018-07-11T02:45:56.509Z,12.10
2018-07-11T02:46:56.395Z,12.05
2018-07-11T02:48:49.266Z,12.05
2018-07-11T02:49:49.052Z,12.07
2018-07-11T02:51:41.801Z,12.11
2018-07-11T02:52:41.691Z,12.05
2018-07-11T02:54:34.482Z,12.14
2018-07-11T02:55:34.346Z,12.18
2018-07-11T02:57:27.080Z,12.11
2018-07-11T02:58:26.989Z,12.13
2018-07-11T03:00:21.329Z,12.13
2018-07-11T03:01:21.193Z,12.05
2018-07-11T03:03:13.914Z,11.99
2018-07-11T03:04:13.814Z,12.03
2018-07-11T03:06:06.670Z,12.05
2018-07-11T03:07:06.562Z,11.99
2018-07-11T03:08:59.306Z,11.87
2018-07-11T03:09:59.213Z,11.91
2018-07-11T03:11:51.976Z,11.89
2018-07-11T03:12:51.864Z,11.87
2018-07-11T03:14:44.614Z,11.79
2018-07-11T03:15:44.519Z,11.70
2018-07-11T03:17:37.775Z,11.70
2018-07-11T03:18:37.663Z,11.69
2018-07-11T03:20:30.414Z,11.70
2018-07-11T03:21:30.311Z,11.67
2018-07-11T03:23:23.102Z,11.62
2018-07-11T03:24:22.964Z,11.62
2018-07-11T03:26:15.703Z,11.59
2018-07-11T03:27:15.610Z,11.59
2018-07-11T03:29:08.484Z,11.67
2018-07-11T03:30:08.370Z,11.69
2018-07-11T03:32:01.138Z,11.76
2018-07-11T03:33:01.020Z,11.76
2018-07-11T03:34:54.386Z,11.73
2018-07-11T03:35:54.165Z,11.66
2018-07-11T03:37:46.930Z,11.71
2018-07-11T03:38:46.859Z,11.67
2018-07-11T03:40:39.581Z,11.58
2018-07-11T03:41:39.455Z,11.64
2018-07-11T03:43:32.211Z,11.61
2018-07-11T03:44:32.120Z,11.67
2018-07-11T03:46:24.958Z,11.67
2018-07-11T03:47:24.891Z,11.66
2018-07-11T03:49:17.627Z,11.79
2018-07-11T03:50:17.505Z,11.73
2018-07-11T03:52:10.261Z,11.85
2018-07-11T03:53:10.153Z,11.79
2018-07-11T03:55:03.001Z,11.87
2018-07-11T03:56:02.896Z,11.91
2018-07-11T03:57:55.761Z,12.05
2018-07-11T03:58:55.645Z,12.04
2018-07-11T04:00:48.410Z,12.21
2018-07-11T04:01:48.321Z,12.18
2018-07-11T04:03:41.090Z,12.17
2018-07-11T04:04:40.974Z,12.28
2018-07-11T04:06:33.811Z,12.28
2018-07-11T04:07:33.693Z,12.35
2018-07-11T04:09:26.549Z,12.35
2018-07-11T04:10:26.447Z,12.32
2018-07-11T04:12:19.286Z,12.36
2018-07-11T04:13:19.198Z,12.38
2018-07-11T04:15:12.043Z,12.38
2018-07-11T04:16:11.969Z,12.54
2018-07-11T04:18:04.705Z,12.47
2018-07-11T04:19:04.626Z,12.53
2018-07-11T04:20:57.470Z,12.43
2018-07-11T04:21:57.338Z,12.54
2018-07-11T04:23:50.089Z,12.43
2018-07-11T04:24:50.023Z,12.38
2018-07-11T04:26:42.779Z,12.35
2018-07-11T04:27:42.637Z,12.36
2018-07-11T04:29:35.505Z,12.38
2018-07-11T04:30:35.382Z,12.46
2018-07-11T04:32:28.132Z,12.54
2018-07-11T04:33:28.121Z,12.46
2018-07-11T04:35:20.804Z,12.53
2018-07-11T04:36:20.683Z,12.48
2018-07-11T04:38:13.451Z,12.53
2018-07-11T04:39:13.329Z,12.48
2018-07-11T04:41:06.199Z,12.62
2018-07-11T04:42:06.068Z,12.55
2018-07-11T04:43:58.925Z,12.69
2018-07-11T04:44:58.824Z,12.76
2018-07-11T04:46:51.600Z,12.90
2018-07-11T04:47:51.479Z,12.91
2018-07-11T04:49:44.218Z,12.86
2018-07-11T04:50:44.147Z,12.87
2018-07-11T04:52:36.927Z,13.08
2018-07-11T04:53:36.784Z,13.06
2018-07-11T04:55:29.512Z,13.14
2018-07-11T04:56:29.412Z,13.23
2018-07-11T04:58:22.298Z,13.19
2018-07-11T04:59:22.165Z,13.27
2018-07-11T05:01:14.933Z,13.26
2018-07-11T05:02:14.823Z,13.30
2018-07-11T05:04:07.573Z,13.39
2018-07-11T05:05:07.453Z,13.38
2018-07-11T05:07:00.324Z,13.39
2018-07-11T05:08:00.214Z,13.45
2018-07-11T05:09:52.970Z,13.58
2018-07-11T05:10:52.904Z,13.54
2018-07-11T05:12:45.608Z,13.51
2018-07-11T05:13:45.504Z,13.55
2018-07-11T05:15:38.450Z,13.64
2018-07-11T05:16:38.356Z,13.64
2018-07-11T05:18:31.119Z,13.65
2018-07-11T05:19:31.052Z,13.60
2018-07-11T05:21:23.915Z,13.58
2018-07-11T05:22:23.665Z,13.42
2018-07-11T05:24:16.413Z,13.43
2018-07-11T05:25:16.308Z,13.42
2018-07-11T05:27:09.179Z,13.43
2018-07-11T05:28:09.045Z,13.42
2018-07-11T05:30:01.804Z,13.43
2018-07-11T05:31:01.700Z,13.39
2018-07-11T05:32:54.464Z,13.40
2018-07-11T05:33:54.347Z,13.36
2018-07-11T05:35:47.137Z,13.47
2018-07-11T05:36:47.000Z,13.55
2018-07-11T05:38:39.855Z,13.64
2018-07-11T05:39:39.755Z,13.71
2018-07-11T05:41:32.581Z,13.71
2018-07-11T05:42:32.514Z,13.76
2018-07-11T05:44:25.769Z,13.93
2018-07-11T05:45:25.651Z,13.88
2018-07-11T05:47:18.403Z,13.78
2018-07-11T05:48:18.364Z,13.91
2018-07-11T05:50:11.152Z,13.91
2018-07-11T05:51:10.950Z,13.98
2018-07-11T05:53:03.735Z,13.98
2018-07-11T05:54:03.584Z,14.09
2018-07-11T05:55:56.346Z,14.16
2018-07-11T05:56:56.249Z,14.05
2018-07-11T05:58:49.216Z,14.08
2018-07-11T05:59:49.082Z,14.15
2018-07-11T06:01:41.832Z,14.12
2018-07-11T06:02:41.746Z,14.08
2018-07-11T06:04:34.613Z,14.05
2018-07-11T06:05:34.396Z,14.11
2018-07-11T06:07:27.133Z,14.01
2018-07-11T06:08:27.033Z,14.01
2018-07-11T06:10:19.839Z,14.04
2018-07-11T06:11:19.676Z,13.96
2018-07-11T06:13:12.986Z,13.93
2018-07-11T06:14:12.840Z,13.93
2018-07-11T06:16:05.587Z,13.94
2018-07-11T06:17:05.503Z,13.93
2018-07-11T06:18:58.235Z,14.12
2018-07-11T06:19:58.133Z,14.08
2018-07-11T06:21:50.990Z,14.13
2018-07-11T06:22:50.876Z,14.15
2018-07-11T06:24:43.642Z,14.19
2018-07-11T06:25:43.529Z,14.15
2018-07-11T06:27:36.279Z,14.16
2018-07-11T06:28:36.172Z,14.13
2018-07-11T06:30:28.913Z,14.21
2018-07-11T06:31:28.833Z,14.31
2018-07-11T06:33:24.807Z,14.26
2018-07-11T06:34:24.720Z,14.41
2018-07-11T06:36:18.524Z,14.38
2018-07-11T06:37:18.421Z,14.41
2018-07-11T06:39:11.266Z,14.23
2018-07-11T06:40:11.162Z,14.26
2018-07-11T06:42:03.932Z,14.34
2018-07-11T06:43:03.815Z,14.44
2018-07-11T06:44:56.616Z,14.48
2018-07-11T06:45:56.455Z,14.53
2018-07-11T06:47:49.245Z,14.70
2018-07-11T06:48:49.116Z,14.73
2018-07-11T06:50:41.867Z,14.96
2018-07-11T06:51:41.890Z,15.03
2018-07-11T06:53:34.525Z,15.17
2018-07-11T06:54:34.393Z,15.32
2018-07-11T06:56:27.252Z,15.22
2018-07-11T06:57:27.207Z,15.29
2018-07-11T06:59:19.900Z,15.19
2018-07-11T07:00:19.798Z,15.20
2018-07-11T07:02:12.640Z,15.20
2018-07-11T07:03:12.557Z,15.15
2018-07-11T07:05:05.307Z,15.22
2018-07-11T07:06:05.193Z,15.29
2018-07-11T07:07:57.959Z,15.19
2018-07-11T07:08:57.843Z,15.22
2018-07-11T07:10:50.596Z,15.19
2018-07-11T07:11:50.487Z,15.22
2018-07-11T07:13:43.246Z,15.17
2018-07-11T07:14:43.155Z,15.19
2018-07-11T07:16:35.985Z,15.11
2018-07-11T07:17:35.788Z,15.01
2018-07-11T07:19:28.537Z,14.86
2018-07-11T07:20:28.436Z,14.77
2018-07-11T07:22:21.734Z,14.63
2018-07-11T07:23:21.595Z,14.56
2018-07-11T07:25:14.334Z,14.59
2018-07-11T07:26:14.234Z,14.63
2018-07-11T07:28:06.996Z,14.67
2018-07-11T07:29:06.908Z,14.74
2018-07-11T07:30:59.743Z,14.78
2018-07-11T07:31:59.627Z,14.89
2018-07-11T07:33:52.395Z,14.95
2018-07-11T07:34:52.349Z,15.01
2018-07-11T07:36:45.207Z,15.15
2018-07-11T07:37:45.069Z,15.22
2018-07-11T07:39:37.799Z,15.36
2018-07-11T07:40:37.674Z,15.44
2018-07-11T07:42:30.529Z,15.62
2018-07-11T07:43:30.423Z,15.63
2018-07-11T07:45:23.172Z,15.69
2018-07-11T07:46:23.087Z,15.76
2018-07-11T07:48:15.971Z,15.83
2018-07-11T07:49:15.850Z,15.85
2018-07-11T07:51:08.684Z,16.03
2018-07-11T07:52:08.572Z,16.09
2018-07-11T07:54:01.330Z,16.06
2018-07-11T07:55:01.225Z,15.93
2018-07-11T07:56:53.964Z,16.08
2018-07-11T07:57:53.871Z,16.17
2018-07-11T07:59:47.137Z,16.21
2018-07-11T08:00:47.048Z,16.21
2018-07-11T08:02:39.875Z,16.40
2018-07-11T08:03:39.778Z,16.44
2018-07-11T08:05:32.545Z,16.65
2018-07-11T08:06:32.422Z,16.62
2018-07-11T08:08:25.177Z,16.72
2018-07-11T08:09:25.077Z,16.88
2018-07-11T08:11:17.983Z,16.92
2018-07-11T08:12:17.839Z,16.98
2018-07-11T08:14:10.679Z,16.99
2018-07-11T08:15:10.561Z,17.14
2018-07-11T08:17:03.826Z,17.02
2018-07-11T08:18:03.730Z,17.06
2018-07-11T08:19:56.485Z,17.01
2018-07-11T08:20:56.374Z,17.14
2018-07-11T08:22:49.228Z,17.14
2018-07-11T08:23:49.121Z,17.28
2018-07-11T08:25:41.977Z,17.53
2018-07-11T08:26:41.878Z,17.54
2018-07-11T08:28:34.712Z,17.87
2018-07-11T08:29:34.618Z,18.05
2018-07-11T08:31:27.475Z,18.46
2018-07-11T08:32:27.377Z,18.61
2018-07-11T08:34:20.153Z,18.64
2018-07-11T08:35:20.022Z,18.52
2018-07-11T08:37:12.863Z,18.49
2018-07-11T08:38:12.764Z,18.27
2018-07-11T08:40:05.629Z,18.17
2018-07-11T08:41:05.515Z,18.23
2018-07-11T08:42:58.367Z,18.54
2018-07-11T08:43:58.271Z,18.71
2018-07-11T08:45:51.163Z,18.57
2018-07-11T08:46:51.017Z,18.76
2018-07-11T08:48:44.288Z,18.86
2018-07-11T08:49:44.190Z,18.88
2018-07-11T08:51:37.055Z,18.85
2018-07-11T08:52:36.937Z,18.71
2018-07-11T08:54:30.189Z,18.71
2018-07-11T08:55:30.090Z,18.67
2018-07-11T08:57:22.953Z,18.79
2018-07-11T08:58:22.832Z,18.88
2018-07-11T09:00:15.690Z,19.00
2018-07-11T09:01:15.606Z,19.12
2018-07-11T09:03:08.364Z,18.75
2018-07-11T09:04:08.232Z,18.56
2018-07-11T09:06:01.082Z,18.61
2018-07-11T09:07:00.984Z,18.61
2018-07-11T09:08:53.856Z,18.74
2018-07-11T09:09:53.747Z,18.66
2018-07-11T09:11:46.600Z,18.63
2018-07-11T09:12:46.483Z,18.76
2018-07-11T09:14:39.344Z,18.70
2018-07-11T09:15:39.236Z,18.71
2018-07-11T09:17:32.094Z,18.82
2018-07-11T09:18:31.978Z,18.85
2018-07-11T09:20:25.270Z,18.86
2018-07-11T09:21:25.143Z,18.85
2018-07-11T09:23:18.063Z,18.54
2018-07-11T09:24:17.901Z,18.61
2018-07-11T09:26:10.800Z,18.76
2018-07-11T09:27:10.771Z,18.86
2018-07-11T09:29:03.487Z,18.88
2018-07-11T09:30:03.399Z,18.82
2018-07-11T09:31:56.250Z,18.48
2018-07-11T09:32:56.140Z,18.58
2018-07-11T09:34:48.987Z,18.71
2018-07-11T09:35:48.891Z,18.78
2018-07-11T09:37:41.776Z,18.76
2018-07-11T09:38:41.640Z,18.82
2018-07-11T09:40:34.487Z,18.74
2018-07-11T09:41:34.390Z,18.86
2018-07-11T09:43:27.176Z,19.08
2018-07-11T09:44:27.054Z,19.08
2018-07-11T09:46:20.292Z,19.24
2018-07-11T09:47:20.208Z,19.32
2018-07-11T09:49:13.047Z,19.53
2018-07-11T09:50:12.943Z,19.60
2018-07-11T09:52:05.725Z,19.63
2018-07-11T09:53:05.616Z,19.63
2018-07-11T09:54:58.861Z,19.63
2018-07-11T09:55:58.752Z,19.78
2018-07-11T09:57:52.107Z,19.57
2018-07-11T09:58:51.926Z,19.44
2018-07-11T10:00:44.753Z,19.20
2018-07-11T10:01:44.661Z,19.13
2018-07-11T10:03:37.446Z,19.15
2018-07-11T10:04:37.324Z,19.13
2018-07-11T10:06:30.147Z,19.05
2018-07-11T10:07:30.057Z,18.89
2018-07-11T10:09:23.969Z,18.93
2018-07-11T10:10:23.832Z,18.97
2018-07-11T10:12:16.679Z,18.93
2018-07-11T10:13:16.578Z,18.88
2018-07-11T10:15:09.446Z,18.76
2018-07-11T10:16:09.346Z,18.79
2018-07-11T10:18:02.195Z,18.79
2018-07-11T10:19:02.076Z,18.89
2018-07-11T10:20:54.945Z,19.04
2018-07-11T10:21:54.825Z,19.00
2018-07-11T10:23:47.598Z,18.58
2018-07-11T10:24:47.487Z,18.46
2018-07-11T10:26:40.311Z,18.43
2018-07-11T10:27:40.251Z,18.45
2018-07-11T10:29:33.004Z,18.61
2018-07-11T10:30:32.870Z,18.63
2018-07-11T10:32:25.608Z,18.43
2018-07-11T10:33:25.523Z,18.39
2018-07-11T10:35:18.365Z,18.24
2018-07-11T10:36:18.267Z,18.28
2018-07-11T10:38:12.153Z,18.34
2018-07-11T10:39:11.516Z,18.57
2018-07-11T10:41:04.320Z,18.56
2018-07-11T10:42:04.182Z,18.61
2018-07-11T10:43:57.055Z,18.56
2018-07-11T10:44:57.008Z,18.42
2018-07-11T10:46:50.177Z,18.58
2018-07-11T10:47:50.087Z,18.66
2018-07-11T10:49:43.478Z,18.82
2018-07-11T10:50:43.341Z,18.74
2018-07-11T10:52:36.109Z,19.16
2018-07-11T10:53:36.007Z,19.30
2018-07-11T10:55:28.841Z,19.52
2018-07-11T10:56:28.765Z,19.64
2018-07-11T10:58:22.037Z,20.09
2018-07-11T10:59:21.921Z,20.04
2018-07-11T11:01:14.837Z,20.34
2018-07-11T11:02:14.651Z,20.46
2018-07-11T11:04:07.495Z,20.64
2018-07-11T11:05:07.412Z,20.61
2018-07-11T11:07:00.267Z,20.75
2018-07-11T11:08:00.073Z,20.48
2018-07-11T11:09:52.920Z,20.14
2018-07-11T11:10:52.813Z,20.00
2018-07-11T11:12:46.180Z,19.92
2018-07-11T11:13:45.547Z,19.93
2018-07-11T11:15:38.404Z,20.00
2018-07-11T11:16:38.312Z,19.68
2018-07-11T11:18:31.167Z,19.79
2018-07-11T11:19:31.061Z,19.92
2018-07-11T11:21:23.929Z,19.93
2018-07-11T11:22:23.808Z,19.75
2018-07-11T11:24:16.636Z,19.70
2018-07-11T11:25:16.557Z,19.90
2018-07-11T11:27:09.411Z,20.07
2018-07-11T11:28:09.316Z,20.14
2018-07-11T11:30:02.148Z,19.94
2018-07-11T11:31:02.080Z,19.77
2018-07-11T11:32:54.900Z,19.62
2018-07-11T11:33:54.790Z,19.77
2018-07-11T11:35:49.101Z,19.89
2018-07-11T11:36:48.982Z,20.00
2018-07-11T11:38:41.849Z,19.93
2018-07-11T11:39:41.735Z,20.04
2018-07-11T11:41:35.143Z,20.12
2018-07-11T11:42:34.625Z,20.14
2018-07-11T11:44:27.336Z,20.17
2018-07-11T11:45:27.239Z,20.29
2018-07-11T11:47:20.117Z,20.39
2018-07-11T11:48:19.982Z,20.39
2018-07-11T11:50:12.845Z,20.34
2018-07-11T11:51:12.737Z,20.30
2018-07-11T11:53:05.580Z,20.15
2018-07-11T11:54:05.503Z,20.17
2018-07-11T11:55:58.316Z,20.37
2018-07-11T11:56:58.241Z,20.49
2018-07-11T11:58:51.096Z,20.44
2018-07-11T11:59:50.977Z,20.29
2018-07-11T12:01:43.913Z,20.07
2018-07-11T12:02:43.728Z,20.02
2018-07-11T12:04:36.579Z,20.22
2018-07-11T12:05:36.471Z,20.22
2018-07-11T12:07:29.333Z,20.63
2018-07-11T12:08:29.249Z,20.50
2018-07-11T12:10:22.091Z,20.58
2018-07-11T12:11:22.021Z,20.67
2018-07-11T12:13:14.858Z,20.58
2018-07-11T12:14:14.723Z,20.52
2018-07-11T12:16:07.569Z,20.50
2018-07-11T12:17:07.477Z,20.42
2018-07-11T12:19:00.323Z,20.00
2018-07-11T12:20:00.231Z,20.15
2018-07-11T12:21:53.073Z,20.19
2018-07-11T12:22:52.972Z,20.41
2018-07-11T12:24:45.846Z,20.52
2018-07-11T12:25:45.742Z,20.64
2018-07-11T12:27:38.580Z,20.98
2018-07-11T12:28:38.465Z,21.22
2018-07-11T12:30:31.311Z,21.38
2018-07-11T12:31:31.223Z,21.51
2018-07-11T12:33:24.135Z,21.78
2018-07-11T12:34:23.995Z,21.91
2018-07-11T12:36:16.815Z,22.04
2018-07-11T12:37:16.736Z,22.00
2018-07-11T12:39:09.591Z,21.78
2018-07-11T12:40:09.464Z,21.80
2018-07-11T12:42:02.314Z,21.62
2018-07-11T12:43:02.222Z,21.44
2018-07-11T12:44:55.079Z,21.28
2018-07-11T12:45:54.994Z,21.07
2018-07-11T12:47:47.808Z,20.74
2018-07-11T12:48:47.728Z,20.93
2018-07-11T12:50:40.584Z,21.04
2018-07-11T12:51:40.475Z,21.25
2018-07-11T12:53:33.332Z,21.84
2018-07-11T12:54:33.219Z,21.84
2018-07-11T12:56:26.075Z,21.77
2018-07-11T12:57:25.969Z,21.59
2018-07-11T12:59:18.811Z,21.58
2018-07-11T13:00:18.755Z,21.35
2018-07-11T13:02:11.585Z,20.89
2018-07-11T13:03:11.469Z,20.71
2018-07-11T13:05:04.320Z,20.82
2018-07-11T13:06:04.223Z,21.00
2018-07-11T13:07:57.082Z,21.58
2018-07-11T13:08:57.007Z,21.77
2018-07-11T13:10:50.365Z,22.36
2018-07-11T13:11:49.748Z,22.28
2018-07-11T13:13:42.583Z,22.77
2018-07-11T13:14:42.494Z,22.68
2018-07-11T13:16:35.362Z,22.76
2018-07-11T13:17:35.215Z,22.74
2018-07-11T13:19:28.066Z,23.01
2018-07-11T13:20:27.969Z,23.33
2018-07-11T13:22:20.817Z,23.61
2018-07-11T13:23:20.711Z,23.81
2018-07-11T13:25:13.553Z,23.94
2018-07-11T13:26:13.480Z,23.74
2018-07-11T13:28:06.340Z,23.07
2018-07-11T13:29:06.211Z,22.85
2018-07-11T13:30:59.088Z,23.03
2018-07-11T13:31:58.962Z,23.06
2018-07-11T13:33:51.801Z,23.34
2018-07-11T13:34:51.720Z,23.55
2018-07-11T13:36:44.583Z,23.56
2018-07-11T13:37:44.479Z,23.74
2018-07-11T13:39:37.304Z,23.81
2018-07-11T13:40:37.210Z,23.70
2018-07-11T13:42:30.593Z,23.94
2018-07-11T13:43:29.986Z,24.06
2018-07-11T13:45:22.815Z,24.22
2018-07-11T13:46:22.745Z,24.23
2018-07-11T13:48:15.570Z,24.29
2018-07-11T13:49:15.470Z,24.22
2018-07-11T13:51:08.341Z,23.73
2018-07-11T13:52:08.234Z,23.64
2018-07-11T13:54:01.056Z,23.33
2018-07-11T13:55:01.015Z,23.26
2018-07-11T13:56:53.853Z,22.89
2018-07-11T13:57:53.718Z,22.78
2018-07-11T13:59:46.567Z,22.59
2018-07-11T14:00:46.461Z,22.71
2018-07-11T14:02:39.332Z,22.71
2018-07-11T14:03:39.727Z,22.53
2018-07-11T14:05:32.067Z,22.56
2018-07-11T14:06:31.968Z,22.86
2018-07-11T14:08:24.817Z,23.22
2018-07-11T14:09:24.710Z,23.56
2018-07-11T14:11:17.562Z,24.00
2018-07-11T14:12:17.457Z,24.44
2018-07-11T14:14:10.434Z,25.11
2018-07-11T14:15:10.208Z,24.78
2018-07-11T14:17:03.079Z,24.82
2018-07-11T14:18:03.099Z,24.91
2018-07-11T14:19:55.801Z,24.85
2018-07-11T14:20:55.713Z,24.90
2018-07-11T14:22:48.569Z,24.56
2018-07-11T14:23:48.457Z,24.37
2018-07-11T14:25:41.320Z,24.08
2018-07-11T14:26:41.215Z,24.23
2018-07-11T14:28:34.064Z,24.38
2018-07-11T14:29:33.970Z,24.29
2018-07-11T14:31:26.815Z,24.62
2018-07-11T14:32:26.714Z,24.55
2018-07-11T14:34:19.773Z,24.75
2018-07-11T14:35:19.565Z,24.63
2018-07-11T14:37:12.453Z,24.26
2018-07-11T14:38:12.332Z,24.62
2018-07-11T14:40:05.259Z,24.00
2018-07-11T14:41:05.172Z,23.79
2018-07-11T14:42:58.026Z,24.08
2018-07-11T14:43:57.926Z,24.33
2018-07-11T14:45:50.755Z,24.37
2018-07-11T14:46:50.674Z,24.47
2018-07-11T14:48:43.521Z,24.81
2018-07-11T14:49:43.417Z,24.84
2018-07-11T14:51:36.454Z,24.85
2018-07-11T14:52:36.173Z,24.58
2018-07-11T14:54:29.028Z,24.91
2018-07-11T14:55:28.920Z,24.94
2018-07-11T14:57:21.810Z,24.45
2018-07-11T14:58:21.668Z,24.47
2018-07-11T15:00:15.095Z,24.22
2018-07-11T15:01:14.415Z,24.10
2018-07-11T15:03:08.800Z,24.10
2018-07-11T15:04:08.692Z,24.26
2018-07-11T15:06:01.565Z,24.16
2018-07-11T15:07:01.575Z,24.11
2018-07-11T15:08:54.407Z,24.08
2018-07-11T15:09:54.205Z,24.33
2018-07-11T15:11:47.058Z,24.89
2018-07-11T15:12:46.958Z,25.03
2018-07-11T15:14:39.798Z,25.18
2018-07-11T15:15:39.741Z,25.23
2018-07-11T15:17:44.125Z,25.70
2018-07-11T15:18:35.107Z,25.59
2018-07-11T15:20:27.954Z,25.45
2018-07-11T15:21:27.855Z,25.38
2018-07-11T15:23:20.818Z,25.26
2018-07-11T15:24:20.705Z,25.51
2018-07-11T15:26:14.661Z,25.31
2018-07-11T15:27:14.492Z,24.91
2018-07-11T15:29:07.388Z,23.88
2018-07-11T15:30:07.231Z,23.96
2018-07-11T15:32:00.078Z,23.74
2018-07-11T15:33:00.013Z,23.78
2018-07-11T15:34:52.849Z,23.78
2018-07-11T15:35:52.765Z,23.96
2018-07-11T15:37:46.088Z,24.34
2018-07-11T15:38:45.589Z,24.15
2018-07-11T15:40:38.459Z,24.29
2018-07-11T15:41:38.325Z,24.36
2018-07-11T15:43:31.692Z,25.31
2018-07-11T15:44:31.078Z,25.51
2018-07-11T15:46:26.415Z,25.88
2018-07-11T15:47:26.277Z,25.77
2018-07-11T15:49:19.996Z,25.86
2018-07-11T15:50:19.757Z,25.68
2018-07-11T15:52:12.611Z,24.99
2018-07-11T15:53:12.513Z,24.74
2018-07-11T15:55:05.455Z,23.81
2018-07-11T15:56:05.352Z,23.42
2018-07-11T15:57:58.208Z,23.11
2018-07-11T15:58:58.203Z,22.95
2018-07-11T16:00:51.058Z,22.64
2018-07-11T16:01:51.012Z,22.66
2018-07-11T16:03:44.728Z,22.66
2018-07-11T16:04:44.630Z,22.74
2018-07-11T16:06:38.384Z,22.73
2018-07-11T16:07:38.296Z,22.76
2018-07-11T16:09:31.181Z,22.56
2018-07-11T16:10:31.050Z,22.70
2018-07-11T16:12:23.909Z,22.93
2018-07-11T16:13:23.793Z,22.80
2018-07-11T16:15:16.645Z,22.73
2018-07-11T16:16:16.548Z,23.06
2018-07-11T16:18:09.396Z,24.00
2018-07-11T16:19:09.334Z,24.21
2018-07-11T16:21:02.149Z,24.25
2018-07-11T16:22:02.044Z,24.04
2018-07-11T16:23:54.882Z,23.81
2018-07-11T16:24:54.794Z,24.18
2018-07-11T16:26:47.676Z,23.88
2018-07-11T16:27:47.542Z,23.94
2018-07-11T16:29:40.486Z,23.73
2018-07-11T16:30:40.397Z,23.69
2018-07-11T16:32:33.263Z,24.90
2018-07-11T16:33:33.359Z,25.48
2018-07-11T16:35:27.289Z,26.75
2018-07-11T16:36:26.914Z,27.08
2018-07-11T16:38:19.533Z,26.75
2018-07-11T16:39:20.900Z,26.42
2018-07-11T16:41:12.121Z,25.89
2018-07-11T16:42:12.069Z,25.36
2018-07-11T16:44:05.503Z,23.92
2018-07-11T16:45:05.398Z,23.56
2018-07-11T16:46:58.340Z,23.04
2018-07-11T16:47:58.245Z,22.52
2018-07-11T16:49:51.603Z,22.00
2018-07-11T16:50:51.074Z,21.77
2018-07-11T16:52:44.036Z,21.13
2018-07-11T16:53:43.941Z,21.01
2018-07-11T16:55:36.793Z,20.77
2018-07-11T16:56:36.674Z,20.65
2018-07-11T16:58:29.621Z,20.36
2018-07-11T16:59:29.532Z,20.12
2018-07-11T17:01:22.500Z,19.93
2018-07-11T17:02:22.382Z,19.92
2018-07-11T17:04:15.325Z,19.87
2018-07-11T17:05:15.233Z,19.89
2018-07-11T17:07:08.200Z,19.63
2018-07-11T17:08:08.122Z,19.50
2018-07-11T17:10:00.926Z,19.53
2018-07-11T17:11:00.836Z,19.37
2018-07-11T17:12:53.813Z,19.49
2018-07-11T17:13:53.697Z,19.59
2018-07-11T17:15:46.553Z,19.49
2018-07-11T17:16:46.434Z,19.39
2018-07-11T17:18:39.818Z,19.26
2018-07-11T17:19:39.703Z,19.30
2018-07-11T17:21:32.670Z,19.15
2018-07-11T17:22:32.572Z,19.16
2018-07-11T17:24:25.536Z,18.88
2018-07-11T17:25:25.428Z,18.96
2018-07-11T17:27:18.360Z,19.04
2018-07-11T17:28:18.267Z,19.01
2018-07-11T17:30:11.218Z,19.09
2018-07-11T17:31:11.108Z,19.19
2018-07-11T17:33:04.120Z,19.24
2018-07-11T17:34:03.964Z,19.27
2018-07-11T17:35:56.827Z,19.32
2018-07-11T17:36:56.702Z,19.26
2018-07-11T17:38:49.564Z,19.31
2018-07-11T17:39:49.452Z,19.23
2018-07-11T17:41:42.428Z,19.09
2018-07-11T17:42:42.300Z,19.05
2018-07-11T17:44:35.276Z,19.01
2018-07-11T17:45:35.177Z,18.97
2018-07-11T17:47:28.146Z,18.88
2018-07-11T17:48:28.037Z,18.98
2018-07-11T17:50:20.968Z,19.00
2018-07-11T17:51:20.887Z,19.01
2018-07-11T17:53:13.837Z,18.93
2018-07-11T17:54:13.856Z,18.85
2018-07-11T17:56:08.092Z,18.89
2018-07-11T17:57:07.994Z,18.88
2018-07-11T17:59:00.868Z,18.88
2018-07-11T18:00:00.834Z,18.94
2018-07-11T18:01:53.698Z,19.01
2018-07-11T18:02:53.506Z,18.97
2018-07-11T18:04:46.439Z,19.24
2018-07-11T18:05:46.359Z,19.37
2018-07-11T18:07:39.312Z,19.63
2018-07-11T18:08:39.201Z,19.67
2018-07-11T18:10:32.172Z,20.48
2018-07-11T18:11:32.076Z,20.71
2018-07-11T18:13:25.967Z,20.83
2018-07-11T18:14:25.866Z,20.61
2018-07-11T18:16:18.788Z,20.34
2018-07-11T18:17:18.687Z,20.26
2018-07-11T18:19:11.649Z,20.00
2018-07-11T18:20:11.546Z,20.04
2018-07-11T18:22:04.469Z,19.71
2018-07-11T18:23:04.386Z,19.56
2018-07-11T18:24:57.360Z,19.60
2018-07-11T18:25:57.236Z,19.57
2018-07-11T18:27:50.183Z,19.56
2018-07-11T18:28:50.092Z,19.63
2018-07-11T18:30:43.074Z,19.50
2018-07-11T18:31:42.945Z,19.35
2018-07-11T18:33:36.289Z,19.27